Time;durP1;ratioP1;P1;durP2;ratioP2;P2;SDS_P1;SDS_P2;PMS_P1;PMS_P2;Temp;Humidity;BMP_temperature;BMP_pressure;BME280_temperature;BME280_humidity;BME280_pressure;Samples;Min_cycle;Max_cycle;Signal;HPM_P1;HPM_P2
2022/07/07 00:04:08;;;;;;;;;;;18.60;1.00;;;;;;10410260;28;85019;-52
2022/07/07 00:09:09;;;;;;;;;;;18.60;99.90;;;;;;10404001;28;84187;-50
2022/07/07 00:14:10;;;;;;;;;;;18.50;99.90;;;;;;10410820;28;84904;-50
2022/07/07 00:19:10;;;;;;;;;;;18.50;99.90;;;;;;10410816;28;84190;-52
2022/07/07 00:24:11;;;;;;;;;;;18.20;1.00;;;;;;10410766;28;85492;-51
2022/07/07 00:29:11;;;;;;;;;;;17.80;1.00;;;;;;10411510;28;84927;-49
2022/07/07 00:34:12;;;;;;;;;;;17.60;1.00;;;;;;10409922;28;84170;-52
2022/07/07 00:39:13;;;;;;;;;;;17.50;21.20;;;;;;10410964;28;84931;-54
2022/07/07 00:44:14;;;;;;;;;;;17.40;40.20;;;;;;10375421;28;85959;-50
2022/07/07 00:49:16;;;;;;;;;;;17.40;1.00;;;;;;10410656;28;85319;-50
2022/07/07 00:54:17;;;;;;;;;;;17.40;44.00;;;;;;10393707;28;84978;-53
2022/07/07 00:59:18;;;;;;;;;;;17.40;7.20;;;;;;10409982;28;84141;-50
2022/07/07 01:04:19;;;;;;;;;;;17.30;99.90;;;;;;10412823;28;84628;-51
2022/07/07 01:09:19;;;;;;;;;;;17.20;99.90;;;;;;10409389;28;84838;-51
2022/07/07 01:14:20;;;;;;;;;;;17.10;99.90;;;;;;10416489;28;84900;-54
2022/07/07 01:19:21;;;;;;;;;;;17.00;99.90;;;;;;10417960;28;84860;-52
2022/07/07 01:24:23;;;;;;;;;;;17.00;99.90;;;;;;10416282;28;85068;-52
2022/07/07 01:29:24;;;;;;;;;;;17.00;99.90;;;;;;10416713;28;85480;-51
2022/07/07 01:34:25;;;;;;;;;;;17.00;99.90;;;;;;10419707;28;84166;-54
2022/07/07 01:39:25;;;;;;;;;;;17.00;99.90;;;;;;10415548;28;84923;-54
2022/07/07 01:44:26;;;;;;;;;;;17.00;99.90;;;;;;10415526;28;84263;-55
2022/07/07 01:49:29;;;;;;;;;;;16.90;99.90;;;;;;10415143;28;85113;-50
2022/07/07 01:54:30;;;;;;;;;;;16.90;99.90;;;;;;10415076;28;85013;-50
2022/07/07 01:59:32;;;;;;;;;;;17.00;99.90;;;;;;10416146;28;84023;-55
2022/07/07 02:04:32;;;;;;;;;;;17.00;99.90;;;;;;10397353;28;87444;-51
2022/07/07 02:09:33;;;;;;;;;;;17.00;99.90;;;;;;10391898;28;84869;-54
2022/07/07 02:14:34;;;;;;;;;;;16.90;99.90;;;;;;10416227;28;85046;-53
2022/07/07 02:19:34;;;;;;;;;;;16.90;99.90;;;;;;10414765;28;84072;-54
2022/07/07 02:24:35;;;;;;;;;;;16.90;99.90;;;;;;10414840;28;85060;-52
2022/07/07 02:29:35;;;;;;;;;;;17.00;99.90;;;;;;10414400;28;84805;-52
2022/07/07 02:34:36;;;;;;;;;;;17.10;99.90;;;;;;10414486;28;87911;-50
2022/07/07 02:39:36;;;;;;;;;;;17.20;99.90;;;;;;10387167;28;85042;-56
2022/07/07 02:44:37;;;;;;;;;;;17.20;99.90;;;;;;10374596;28;84133;-53
2022/07/07 02:49:37;;;;;;;;;;;17.20;99.90;;;;;;10407995;28;88252;-51
2022/07/07 02:54:38;;;;;;;;;;;17.30;99.90;;;;;;10353890;28;85251;-54
2022/07/07 02:59:38;;;;;;;;;;;17.30;79.20;;;;;;10382266;28;89484;-55
2022/07/07 03:04:39;;;;;;;;;;;17.40;86.60;;;;;;10363160;28;84553;-55
2022/07/07 03:09:39;;;;;;;;;;;17.40;62.00;;;;;;10376284;28;84098;-53
2022/07/07 03:14:40;;;;;;;;;;;17.40;99.90;;;;;;10415190;28;84371;-55
2022/07/07 03:19:40;;;;;;;;;;;17.30;99.90;;;;;;10414326;28;84816;-51
2022/07/07 03:24:42;;;;;;;;;;;17.40;99.90;;;;;;10395991;28;86250;-53
2022/07/07 03:29:42;;;;;;;;;;;17.50;99.90;;;;;;10386822;28;85178;-50
2022/07/07 03:34:43;;;;;;;;;;;17.60;99.90;;;;;;10340524;28;85274;-56
2022/07/07 03:39:44;;;;;;;;;;;17.50;99.90;;;;;;10343197;28;84932;-50
2022/07/07 03:44:44;;;;;;;;;;;17.50;99.90;;;;;;10401254;28;87278;-52
2022/07/07 03:49:45;;;;;;;;;;;17.50;99.90;;;;;;10411298;28;84167;-50
2022/07/07 03:54:45;;;;;;;;;;;17.40;99.90;;;;;;10407998;28;88903;-53
2022/07/07 03:59:46;;;;;;;;;;;17.50;99.90;;;;;;10410774;28;84356;-50
2022/07/07 04:04:46;;;;;;;;;;;17.40;99.90;;;;;;10410883;28;84987;-54
2022/07/07 04:09:47;;;;;;;;;;;17.40;99.90;;;;;;10359659;28;85235;-53
2022/07/07 04:14:48;;;;;;;;;;;17.40;99.90;;;;;;10347839;28;84815;-51
2022/07/07 04:19:48;;;;;;;;;;;17.40;99.90;;;;;;10353187;28;84302;-51
2022/07/07 04:24:49;;;;;;;;;;;17.40;99.90;;;;;;10348564;28;85083;-51
2022/07/07 04:29:50;;;;;;;;;;;17.40;99.90;;;;;;10347267;28;84033;-51
2022/07/07 04:34:50;;;;;;;;;;;17.50;99.90;;;;;;10348965;28;84036;-53
2022/07/07 04:39:51;;;;;;;;;;;17.40;99.90;;;;;;10347089;28;84907;-50
2022/07/07 04:44:51;;;;;;;;;;;17.50;99.90;;;;;;10414502;22;84297;-47
2022/07/07 04:49:52;;;;;;;;;;;17.30;99.90;;;;;;10449072;28;84149;-49
2022/07/07 04:54:53;;;;;;;;;;;17.20;99.90;;;;;;10425601;28;84180;-47
2022/07/07 04:59:53;;;;;;;;;;;17.20;99.90;;;;;;10406454;28;85176;-47
2022/07/07 05:04:54;;;;;;;;;;;17.20;99.90;;;;;;10407787;28;90570;-48
2022/07/07 05:09:55;;;;;;;;;;;17.20;99.90;;;;;;10408820;28;84887;-48
2022/07/07 05:14:56;;;;;;;;;;;16.90;99.90;;;;;;10389917;28;84152;-46
2022/07/07 05:19:57;;;;;;;;;;;16.80;99.90;;;;;;10404581;28;84316;-49
2022/07/07 05:24:57;;;;;;;;;;;16.90;99.90;;;;;;10397614;28;84306;-47
2022/07/07 05:29:58;;;;;;;;;;;16.90;99.90;;;;;;10389145;28;88561;-47
2022/07/07 05:34:58;;;;;;;;;;;17.00;99.90;;;;;;10407598;28;84856;-47
2022/07/07 05:39:59;;;;;;;;;;;17.00;99.90;;;;;;10406540;28;87076;-47
2022/07/07 05:45:00;;;;;;;;;;;17.10;99.90;;;;;;10407270;28;84535;-48
2022/07/07 05:50:01;;;;;;;;;;;17.20;99.90;;;;;;10410639;28;85018;-46
2022/07/07 05:55:02;;;;;;;;;;;17.30;99.90;;;;;;10414763;28;84759;-47
2022/07/07 06:00:03;;;;;;;;;;;17.30;99.90;;;;;;10395755;28;86575;-48
2022/07/07 06:05:12;;;;;;;;;;;17.40;99.90;;;;;;10396089;28;84578;-47
2022/07/07 06:10:15;;;;;;;;;;;17.40;99.90;;;;;;10413949;28;84794;-46
2022/07/07 06:15:17;;;;;;;;;;;17.40;99.90;;;;;;10414257;28;84930;-46
2022/07/07 06:20:18;;;;;;;;;;;17.50;99.90;;;;;;10414076;28;84120;-43
2022/07/07 06:25:20;;;;;;;;;;;17.50;99.90;;;;;;10414171;28;84031;-47
2022/07/07 06:30:20;;;;;;;;;;;17.40;99.90;;;;;;10413756;28;84154;-44
2022/07/07 06:35:22;;;;;;;;;;;17.30;99.90;;;;;;10413201;28;85017;-46
2022/07/07 06:40:22;;;;;;;;;;;17.20;99.90;;;;;;10414573;28;84163;-49
2022/07/07 06:45:23;;;;;;;;;;;17.10;99.90;;;;;;10396292;28;84229;-50
2022/07/07 06:50:24;;;;;;;;;;;17.00;99.90;;;;;;10395105;28;83945;-44
2022/07/07 06:55:25;;;;;;;;;;;16.90;99.90;;;;;;10412722;28;84196;-46
2022/07/07 07:00:25;;;;;;;;;;;17.10;99.90;;;;;;10411382;28;84045;-51
2022/07/07 07:05:26;;;;;;;;;;;17.10;99.90;;;;;;10394727;28;84915;-50
2022/07/07 07:10:27;;;;;;;;;;;17.10;99.90;;;;;;10411865;28;84001;-46
2022/07/07 07:15:27;;;;;;;;;;;16.90;99.90;;;;;;10411683;28;84063;-46
2022/07/07 07:20:29;;;;;;;;;;;16.60;99.90;;;;;;10411415;28;84168;-45
2022/07/07 07:25:30;;;;;;;;;;;16.50;99.90;;;;;;10412175;28;84242;-46
2022/07/07 07:30:31;;;;;;;;;;;16.90;99.90;;;;;;10411632;28;85013;-47
2022/07/07 07:35:31;;;;;;;;;;;16.90;99.90;;;;;;10411117;28;84105;-48
2022/07/07 07:40:32;;;;;;;;;;;17.20;99.90;;;;;;10411237;28;85091;-47
2022/07/07 07:45:32;;;;;;;;;;;17.50;99.90;;;;;;10410278;28;85007;-50
2022/07/07 07:50:33;;;;;;;;;;;17.80;99.90;;;;;;10410822;28;84892;-47
2022/07/07 07:55:35;;;;;;;;;;;18.00;1.00;;;;;;10410167;28;84074;-47
2022/07/07 08:00:36;;;;;;;;;;;18.60;1.00;;;;;;10410589;28;84833;-46
2022/07/07 08:05:37;;;;;;;;;;;18.60;1.00;;;;;;10410436;28;85122;-50
2022/07/07 08:10:37;;;;;;;;;;;18.50;1.00;;;;;;10409061;28;84746;-51
2022/07/07 08:15:38;;;;;;;;;;;18.50;1.00;;;;;;10410877;28;84916;-46
2022/07/07 08:20:38;;;;;;;;;;;18.70;1.00;;;;;;10410238;28;84893;-46
2022/07/07 08:25:39;;;;;;;;;;;19.00;1.00;;;;;;10410382;28;84724;-46
2022/07/07 08:30:39;;;;;;;;;;;19.50;1.00;;;;;;10408828;28;84185;-45
2022/07/07 08:35:40;;;;;;;;;;;19.70;99.90;;;;;;10411636;28;84371;-47
2022/07/07 08:40:40;;;;;;;;;;;19.40;99.90;;;;;;10411257;28;84097;-50
2022/07/07 08:45:41;;;;;;;;;;;19.10;1.00;;;;;;10410530;28;86191;-48
2022/07/07 08:50:42;;;;;;;;;;;18.90;1.00;;;;;;10413707;28;84935;-45
2022/07/07 08:55:43;;;;;;;;;;;19.20;1.00;;;;;;10411621;28;84862;-46
2022/07/07 09:00:43;;;;;;;;;;;20.60;1.00;;;;;;10408470;28;87004;-51
2022/07/07 09:05:44;;;;;;;;;;;21.70;1.00;;;;;;10410061;28;84876;-50
2022/07/07 09:10:45;;;;;;;;;;;22.10;99.90;;;;;;10408923;28;84019;-48
2022/07/07 09:15:45;;;;;;;;;;;21.90;1.00;;;;;;10409302;28;84870;-44
2022/07/07 09:20:46;;;;;;;;;;;21.10;99.90;;;;;;10408297;28;85222;-46
2022/07/07 09:25:46;;;;;;;;;;;21.20;1.00;;;;;;10410914;28;84936;-45
2022/07/07 09:30:48;;;;;;;;;;;21.00;1.00;;;;;;10415871;28;84220;-46
2022/07/07 09:41:10;;;;;;;;;;;20.90;1.00;;;;;;10416389;28;84029;-45
2022/07/07 09:46:14;;;;;;;;;;;20.10;99.90;;;;;;10416313;28;85053;-45
2022/07/07 09:51:19;;;;;;;;;;;19.60;1.00;;;;;;10418350;28;84900;-51
2022/07/07 09:56:21;;;;;;;;;;;19.40;1.00;;;;;;10417564;28;84234;-51
2022/07/07 10:01:25;;;;;;;;;;;20.00;99.90;;;;;;10416960;28;84925;-49
2022/07/07 10:06:26;;;;;;;;;;;20.80;1.00;;;;;;10416564;28;84036;-50
2022/07/07 10:11:44;;;;;;;;;;;21.50;1.00;;;;;;10416619;28;84967;-49
2022/07/07 10:16:47;;;;;;;;;;;22.90;44.50;;;;;;10397597;28;87031;-47
2022/07/07 10:21:49;;;;;;;;;;;24.50;1.00;;;;;;10415133;28;84333;-48
2022/07/07 10:27:07;;;;;;;;;;;24.00;1.00;;;;;;10415529;28;85349;-43
2022/07/07 10:32:10;;;;;;;;;;;23.20;99.90;;;;;;10416403;28;84273;-47
2022/07/07 10:37:11;;;;;;;;;;;22.30;1.00;;;;;;10415912;28;84406;-48
2022/07/07 10:42:14;;;;;;;;;;;21.20;99.90;;;;;;10397321;28;86756;-45
2022/07/07 10:47:18;;;;;;;;;;;20.60;99.90;;;;;;10543295;22;84387;-54
2022/07/07 10:52:19;;;;;;;;;;;20.90;99.90;;;;;;10547398;27;84869;-51
2022/07/07 10:57:21;;;;;;;;;;;21.70;1.00;;;;;;10544131;27;84231;-52
2022/07/07 11:02:42;;;;;;;;;;;22.30;1.00;;;;;;10525307;27;86817;-52
2022/07/07 11:08:08;;;;;;;;;;;22.20;1.00;;;;;;10526821;27;86069;-54
2022/07/07 11:13:14;;;;;;;;;;;21.60;1.00;;;;;;10526852;27;85960;-55
2022/07/07 11:18:16;;;;;;;;;;;23.00;1.00;;;;;;10526166;27;84898;-54
2022/07/07 11:23:17;;;;;;;;;;;23.40;1.00;;;;;;10543818;27;84921;-51
2022/07/07 11:28:17;;;;;;;;;;;22.60;99.90;;;;;;10543268;27;84936;-54
2022/07/07 11:33:20;;;;;;;;;;;21.90;1.00;;;;;;10543143;27;84013;-51
2022/07/07 11:38:25;;;;;;;;;;;21.60;99.90;;;;;;10542678;27;84957;-49
2022/07/07 11:43:26;;;;;;;;;;;21.10;1.00;;;;;;10521017;27;84135;-50
2022/07/07 11:48:37;;;;;;;;;;;20.80;99.90;;;;;;10540421;27;84864;-51
2022/07/07 11:53:37;;;;;;;;;;;20.60;1.00;;;;;;10540302;27;86544;-54
2022/07/07 11:58:53;;;;;;;;;;;20.70;1.00;;;;;;10541567;27;84128;-52
2022/07/07 12:03:53;;;;;;;;;;;21.30;99.90;;;;;;10541032;27;84181;-53
2022/07/07 12:08:55;;;;;;;;;;;21.50;1.00;;;;;;10541864;27;84876;-52
2022/07/07 12:13:56;;;;;;;;;;;21.30;99.90;;;;;;10523753;27;86402;-52
2022/07/07 12:18:57;;;;;;;;;;;20.80;99.90;;;;;;10539853;27;84039;-54
2022/07/07 12:24:01;;;;;;;;;;;20.40;1.00;;;;;;10540077;27;84954;-50
2022/07/07 12:29:01;;;;;;;;;;;20.00;1.00;;;;;;10543194;27;84931;-51
2022/07/07 12:34:12;;;;;;;;;;;19.70;1.00;;;;;;10540264;27;84824;-57
2022/07/07 12:39:14;;;;;;;;;;;19.80;1.00;;;;;;10541979;27;85373;-50
2022/07/07 12:44:15;;;;;;;;;;;20.10;1.00;;;;;;10539795;27;84931;-56
2022/07/07 12:49:16;;;;;;;;;;;20.50;99.90;;;;;;10542138;27;84393;-53
2022/07/07 12:54:21;;;;;;;;;;;20.50;1.00;;;;;;10523964;27;85380;-54
2022/07/07 12:59:21;;;;;;;;;;;20.30;1.00;;;;;;10544462;27;84909;-54
2022/07/07 13:04:24;;;;;;;;;;;20.30;1.00;;;;;;10550833;27;84940;-56
2022/07/07 13:09:24;;;;;;;;;;;19.90;99.90;;;;;;10514861;27;85813;-55
2022/07/07 13:14:25;;;;;;;;;;;19.90;99.90;;;;;;10549826;27;84145;-56
2022/07/07 13:19:26;;;;;;;;;;;19.80;11.10;;;;;;10550580;27;84046;-54
2022/07/07 13:24:27;;;;;;;;;;;19.60;99.90;;;;;;10531841;27;83981;-54
2022/07/07 13:29:27;;;;;;;;;;;19.30;99.90;;;;;;10549386;27;84018;-52
2022/07/07 13:34:28;;;;;;;;;;;19.30;1.00;;;;;;10550013;27;84173;-55
2022/07/07 13:39:28;;;;;;;;;;;19.20;1.00;;;;;;10549264;27;84676;-56
2022/07/07 13:44:29;;;;;;;;;;;18.90;1.00;;;;;;10530572;27;85047;-56
2022/07/07 13:49:30;;;;;;;;;;;18.70;1.00;;;;;;10550736;27;84765;-53
2022/07/07 13:54:32;;;;;;;;;;;18.60;1.00;;;;;;10530211;27;86875;-54
2022/07/07 13:59:32;;;;;;;;;;;18.70;1.00;;;;;;10547884;27;84146;-55
2022/07/07 14:04:34;;;;;;;;;;;19.00;1.00;;;;;;10528463;27;84919;-54
2022/07/07 14:09:34;;;;;;;;;;;19.20;1.00;;;;;;10526222;27;84154;-52
2022/07/07 14:14:35;;;;;;;;;;;19.40;1.00;;;;;;10543887;27;84838;-50
2022/07/07 14:19:35;;;;;;;;;;;19.60;1.00;;;;;;10544313;27;84868;-52
2022/07/07 14:24:36;;;;;;;;;;;19.30;1.00;;;;;;10544445;27;85225;-53
2022/07/07 14:29:37;;;;;;;;;;;19.20;1.00;;;;;;10544666;27;84180;-51
2022/07/07 14:34:38;;;;;;;;;;;19.70;99.90;;;;;;10526902;27;84854;-52
2022/07/07 14:39:39;;;;;;;;;;;20.30;98.90;;;;;;10508497;27;85894;-50
2022/07/07 14:44:41;;;;;;;;;;;20.80;99.90;;;;;;10543314;27;84352;-52
2022/07/07 14:49:42;;;;;;;;;;;20.50;1.00;;;;;;10544087;27;84302;-53
2022/07/07 14:54:43;;;;;;;;;;;20.20;99.90;;;;;;10509078;27;86006;-52
2022/07/07 14:59:43;;;;;;;;;;;20.00;1.00;;;;;;10543853;27;84175;-51
2022/07/07 15:04:44;;;;;;;;;;;20.40;1.00;;;;;;10523850;27;84837;-53
2022/07/07 15:09:45;;;;;;;;;;;20.60;1.00;;;;;;10543274;27;84194;-49
2022/07/07 15:14:45;;;;;;;;;;;20.70;99.90;;;;;;10524849;27;84256;-53
2022/07/07 15:19:46;;;;;;;;;;;20.90;99.90;;;;;;10542842;27;84105;-52
2022/07/07 15:24:46;;;;;;;;;;;20.80;1.00;;;;;;10523346;27;84904;-50
2022/07/07 15:29:47;;;;;;;;;;;20.50;1.00;;;;;;10541968;27;84194;-50
2022/07/07 15:34:48;;;;;;;;;;;20.10;1.00;;;;;;10541284;27;84099;-54
2022/07/07 15:39:48;;;;;;;;;;;20.10;1.00;;;;;;10542773;27;84469;-52
2022/07/07 15:44:49;;;;;;;;;;;20.60;99.90;;;;;;10543182;27;84108;-54
2022/07/07 15:49:50;;;;;;;;;;;20.30;1.00;;;;;;10534808;27;84933;-50
2022/07/07 15:54:50;;;;;;;;;;;19.70;1.00;;;;;;10542768;27;84084;-49
2022/07/07 15:59:51;;;;;;;;;;;19.50;1.00;;;;;;10511912;27;84990;-52
2022/07/07 16:04:51;;;;;;;;;;;19.80;99.90;;;;;;10523730;27;84846;-52
2022/07/07 16:09:52;;;;;;;;;;;19.50;99.90;;;;;;10501255;27;86152;-52
2022/07/07 16:14:52;;;;;;;;;;;19.20;99.90;;;;;;10518401;27;84544;-51
2022/07/07 16:19:55;;;;;;;;;;;19.40;1.00;;;;;;10524840;27;105092;-50
2022/07/07 16:24:55;;;;;;;;;;;19.40;1.00;;;;;;10531143;27;84299;-53
2022/07/07 16:29:56;;;;;;;;;;;19.00;99.90;;;;;;10534798;27;84165;-50
2022/07/07 16:34:57;;;;;;;;;;;18.80;99.90;;;;;;10513889;27;84120;-51
2022/07/07 16:39:58;;;;;;;;;;;18.90;98.20;;;;;;10527496;27;84323;-50
2022/07/07 16:44:59;;;;;;;;;;;19.00;1.00;;;;;;10506749;22;84854;-48
2022/07/07 16:49:59;;;;;;;;;;;19.00;1.00;;;;;;10416011;28;84015;-46
2022/07/07 16:55:00;;;;;;;;;;;18.80;99.90;;;;;;10427054;28;84934;-45
2022/07/07 17:00:01;;;;;;;;;;;19.00;1.00;;;;;;10432333;27;85381;-53
2022/07/07 17:05:01;;;;;;;;;;;18.90;1.00;;;;;;10438346;28;84351;-48
2022/07/07 17:10:02;;;;;;;;;;;18.90;1.00;;;;;;10432672;28;84000;-52
2022/07/07 17:15:03;;;;;;;;;;;18.80;1.00;;;;;;10435242;28;84825;-47
2022/07/07 17:20:04;;;;;;;;;;;18.60;99.90;;;;;;10431373;28;86388;-49
2022/07/07 17:25:05;;;;;;;;;;;18.60;1.00;;;;;;10438232;27;84913;-45
2022/07/07 17:30:07;;;;;;;;;;;18.60;1.00;;;;;;10429872;28;84034;-50
2022/07/07 17:35:08;;;;;;;;;;;18.60;1.00;;;;;;10448111;27;84920;-46
2022/07/07 17:40:09;;;;;;;;;;;18.40;99.90;;;;;;10427768;28;84752;-50
2022/07/07 17:45:10;;;;;;;;;;;18.30;1.00;;;;;;10439462;28;84804;-48
2022/07/07 17:50:10;;;;;;;;;;;18.20;1.00;;;;;;10418050;27;84191;-45
2022/07/07 17:55:11;;;;;;;;;;;18.10;54.70;;;;;;10444984;27;84988;-53
2022/07/07 18:00:12;;;;;;;;;;;18.00;1.00;;;;;;10443791;28;84130;-46
2022/07/07 18:05:15;;;;;;;;;;;17.90;1.00;;;;;;10444789;27;84223;-47
2022/07/07 18:10:15;;;;;;;;;;;18.00;1.00;;;;;;10447868;28;84293;-48
2022/07/07 18:15:16;;;;;;;;;;;18.00;1.00;;;;;;10446030;27;84337;-47
2022/07/07 18:20:17;;;;;;;;;;;18.00;1.00;;;;;;10447600;28;84683;-52
2022/07/07 18:25:18;;;;;;;;;;;18.00;99.90;;;;;;10445199;27;85040;-52
2022/07/07 18:30:19;;;;;;;;;;;17.90;1.00;;;;;;10451814;27;85098;-51
2022/07/07 18:35:19;;;;;;;;;;;17.90;1.00;;;;;;10454828;27;84951;-54
2022/07/07 18:40:21;;;;;;;;;;;18.10;99.90;;;;;;10444431;27;85318;-53
2022/07/07 18:45:22;;;;;;;;;;;18.00;99.90;;;;;;10441482;27;84760;-52
2022/07/07 18:50:23;;;;;;;;;;;17.80;99.90;;;;;;10429781;28;84257;-52
2022/07/07 18:55:23;;;;;;;;;;;17.80;1.00;;;;;;10438178;27;84276;-55
2022/07/07 19:00:24;;;;;;;;;;;17.60;1.00;;;;;;10436173;28;84200;-59
2022/07/07 19:05:24;;;;;;;;;;;17.40;37.20;;;;;;10434609;28;85913;-63
2022/07/07 19:10:25;;;;;;;;;;;17.50;99.90;;;;;;10453621;28;86024;-66
2022/07/07 19:15:26;;;;;;;;;;;17.40;99.90;;;;;;10432883;27;85217;-65
2022/07/07 19:20:26;;;;;;;;;;;17.30;1.00;;;;;;10465869;27;84229;-63
2022/07/07 19:25:27;;;;;;;;;;;17.20;1.00;;;;;;10466735;27;85290;-63
2022/07/07 19:30:27;;;;;;;;;;;17.30;1.00;;;;;;10452651;28;85090;-63
2022/07/07 19:35:28;;;;;;;;;;;17.10;1.00;;;;;;10453621;28;84257;-61
2022/07/07 19:40:30;;;;;;;;;;;17.10;1.00;;;;;;10452251;28;84235;-64
2022/07/07 19:45:31;;;;;;;;;;;17.10;1.00;;;;;;10432060;27;87061;-62
2022/07/07 19:50:31;;;;;;;;;;;17.10;1.00;;;;;;10450528;28;84773;-63
2022/07/07 19:55:32;;;;;;;;;;;17.20;1.00;;;;;;10449516;27;84625;-60
2022/07/07 20:00:33;;;;;;;;;;;17.10;1.00;;;;;;10445364;28;84823;-61
2022/07/07 20:05:33;;;;;;;;;;;17.00;1.00;;;;;;10449146;27;84342;-61
2022/07/07 20:10:35;;;;;;;;;;;16.90;1.00;;;;;;10449624;28;84873;-59
2022/07/07 20:15:36;;;;;;;;;;;16.90;1.00;;;;;;10414340;27;84768;-59
2022/07/07 20:20:36;;;;;;;;;;;16.80;1.00;;;;;;10425301;28;85152;-59
2022/07/07 20:25:37;;;;;;;;;;;16.80;1.00;;;;;;10430639;28;84874;-61
2022/07/07 20:30:38;;;;;;;;;;;16.70;1.00;;;;;;10431227;28;84895;-60
2022/07/07 20:35:38;;;;;;;;;;;16.60;99.90;;;;;;10427480;27;84740;-61
2022/07/07 20:40:39;;;;;;;;;;;16.60;99.90;;;;;;10430073;28;84625;-60
2022/07/07 20:45:39;;;;;;;;;;;16.60;99.90;;;;;;10416359;28;85033;-58
2022/07/07 20:50:40;;;;;;;;;;;16.60;99.90;;;;;;10432712;28;84264;-58
2022/07/07 20:55:41;;;;;;;;;;;16.60;99.90;;;;;;10426854;27;84965;-58
2022/07/07 21:00:41;;;;;;;;;;;16.60;1.00;;;;;;10442252;28;84915;-59
2022/07/07 21:05:42;;;;;;;;;;;16.40;1.00;;;;;;10435339;28;84866;-55
2022/07/07 21:10:43;;;;;;;;;;;16.40;1.00;;;;;;10414789;28;87128;-57
2022/07/07 21:15:44;;;;;;;;;;;16.40;1.00;;;;;;10430916;28;84912;-56
2022/07/07 21:20:45;;;;;;;;;;;16.40;1.00;;;;;;10427098;28;84170;-58
2022/07/07 21:25:45;;;;;;;;;;;16.40;1.00;;;;;;10451451;27;84967;-56
2022/07/07 21:30:46;;;;;;;;;;;16.40;1.00;;;;;;10419250;28;84027;-57
2022/07/07 21:35:46;;;;;;;;;;;16.30;1.00;;;;;;10444277;27;84214;-56
2022/07/07 21:40:47;;;;;;;;;;;16.40;1.00;;;;;;10443396;28;84164;-58
2022/07/07 21:45:48;;;;;;;;;;;16.30;1.00;;;;;;10414425;28;84748;-56
2022/07/07 21:50:48;;;;;;;;;;;16.30;1.00;;;;;;10437806;28;84253;-57
2022/07/07 21:55:49;;;;;;;;;;;16.30;1.00;;;;;;10430679;28;85011;-56
2022/07/07 22:00:50;;;;;;;;;;;16.30;1.00;;;;;;10414502;28;84208;-58
2022/07/07 22:11:10;;;;;;;;;;;16.30;99.90;;;;;;10449190;28;83988;-55
2022/07/07 22:16:10;;;;;;;;;;;16.20;1.00;;;;;;10456422;27;84246;-56
2022/07/07 22:21:11;;;;;;;;;;;16.20;99.90;;;;;;10456224;28;84377;-58
2022/07/07 22:26:11;;;;;;;;;;;16.10;99.90;;;;;;10456297;27;85000;-52
2022/07/07 22:31:13;;;;;;;;;;;16.20;99.90;;;;;;10436630;28;84995;-52
2022/07/07 22:36:13;;;;;;;;;;;16.20;99.90;;;;;;10436579;28;85195;-51
2022/07/07 22:41:14;;;;;;;;;;;16.10;99.90;;;;;;10455002;28;84822;-53
2022/07/07 22:46:14;;;;;;;;;;;16.20;99.90;;;;;;10524559;22;85207;-59
2022/07/07 22:51:15;;;;;;;;;;;16.10;99.90;;;;;;10529509;27;85541;-59
2022/07/07 22:56:16;;;;;;;;;;;16.00;1.00;;;;;;10509791;27;84133;-51
2022/07/07 23:01:16;;;;;;;;;;;15.90;1.00;;;;;;10497048;27;84044;-55
2022/07/07 23:06:17;;;;;;;;;;;15.90;1.00;;;;;;10477563;27;86008;-55
2022/07/07 23:11:17;;;;;;;;;;;15.80;1.00;;;;;;10495868;27;84344;-52
2022/07/07 23:16:18;;;;;;;;;;;15.80;1.00;;;;;;10497601;27;84458;-53
2022/07/07 23:21:19;;;;;;;;;;;15.80;1.00;;;;;;10478410;27;84921;-57
2022/07/07 23:26:19;;;;;;;;;;;15.80;1.00;;;;;;10498976;27;84889;-51
2022/07/07 23:31:20;;;;;;;;;;;15.80;1.00;;;;;;10502072;27;84108;-57
2022/07/07 23:36:20;;;;;;;;;;;15.80;1.00;;;;;;10502313;27;84812;-56
2022/07/07 23:41:21;;;;;;;;;;;15.80;28.10;;;;;;10501763;27;84342;-58
2022/07/07 23:46:21;;;;;;;;;;;15.70;94.70;;;;;;10502226;27;84104;-59
2022/07/07 23:51:22;;;;;;;;;;;15.70;99.90;;;;;;10500110;27;84937;-55
2022/07/07 23:56:23;;;;;;;;;;;15.70;1.00;;;;;;10497917;27;84954;-50
